createdAt,value
2023-05-10T00:00:10.163Z,29.27
2023-05-10T00:02:43.231Z,27.40
2023-05-10T00:05:13.404Z,26.75
2023-05-10T00:07:46.948Z,31.77
2023-05-10T00:10:17.367Z,25.42
2023-05-10T00:12:48.442Z,22.77
2023-05-10T00:15:18.864Z,21.92
2023-05-10T00:17:49.451Z,24.30
2023-05-10T00:20:20.407Z,24.63
2023-05-10T00:22:50.904Z,23.45
2023-05-10T00:25:22.822Z,31.88
2023-05-10T00:27:53.571Z,24.98
2023-05-10T00:30:26.530Z,23.15
2023-05-10T00:32:56.935Z,24.45
2023-05-10T00:35:28.186Z,31.83
2023-05-10T00:37:58.578Z,31.70
2023-05-10T00:40:28.925Z,26.23
2023-05-10T00:43:03.750Z,22.65
2023-05-10T00:45:34.330Z,25.42
2023-05-10T00:48:05.876Z,21.23
2023-05-10T00:50:37.477Z,21.40
2023-05-10T00:53:08.459Z,18.30
2023-05-10T00:55:39.667Z,25.25
2023-05-10T00:58:10.983Z,29.20
2023-05-10T01:00:45.672Z,20.48
2023-05-10T01:03:17.026Z,12.02
2023-05-10T01:05:47.441Z,18.10
2023-05-10T01:08:19.254Z,24.77
2023-05-10T01:10:51.363Z,25.38
2023-05-10T01:13:26.206Z,18.20
2023-05-10T01:15:57.881Z,23.08
2023-05-10T01:18:28.972Z,15.02
2023-05-10T01:21:05.996Z,12.00
2023-05-10T01:23:59.997Z,16.02
2023-05-10T01:26:48.468Z,15.38
2023-05-10T01:29:33.666Z,15.77
2023-05-10T01:32:04.458Z,17.85
2023-05-10T01:34:39.905Z,14.48
2023-05-10T01:37:22.934Z,25.70
2023-05-10T01:40:00.382Z,18.02
2023-05-10T01:42:39.557Z,18.63
2023-05-10T01:45:28.501Z,15.77
2023-05-10T01:48:09.503Z,14.13
2023-05-10T01:50:42.767Z,14.88
2023-05-10T01:53:14.487Z,16.17
2023-05-10T01:55:48.184Z,17.52
2023-05-10T01:58:21.372Z,10.85
2023-05-10T02:00:54.087Z,13.13
2023-05-10T02:03:26.702Z,21.83
2023-05-10T02:05:57.985Z,16.23
2023-05-10T02:08:28.964Z,16.23
2023-05-10T02:11:01.079Z,13.48
2023-05-10T02:13:34.783Z,28.58
2023-05-10T02:16:07.273Z,13.15
2023-05-10T02:18:39.034Z,32.80
2023-05-10T02:21:11.061Z,46.05
2023-05-10T02:23:42.801Z,38.67
2023-05-10T02:26:14.240Z,47.75
2023-05-10T02:28:45.976Z,51.10
2023-05-10T02:31:19.792Z,43.85
2023-05-10T02:33:51.292Z,48.03
2023-05-10T02:36:26.715Z,47.38
2023-05-10T02:38:57.627Z,50.95
2023-05-10T02:41:29.169Z,43.00
2023-05-10T02:44:02.729Z,51.33
2023-05-10T02:46:33.082Z,53.53
2023-05-10T02:49:04.043Z,55.85
2023-05-10T02:51:37.741Z,35.47
2023-05-10T02:54:15.750Z,44.97
2023-05-10T02:56:52.057Z,46.65
2023-05-10T02:59:22.377Z,58.80
2023-05-10T03:01:53.590Z,55.78
2023-05-10T03:04:24.667Z,54.60
2023-05-10T03:06:58.088Z,51.63
2023-05-10T03:09:29.036Z,68.00
2023-05-10T03:12:16.067Z,64.18
2023-05-10T03:15:04.975Z,51.75
2023-05-10T03:17:58.269Z,59.17
2023-05-10T03:20:32.063Z,54.22
2023-05-10T03:23:09.530Z,61.90
2023-05-10T03:25:42.049Z,64.25
2023-05-10T03:28:12.555Z,59.78
2023-05-10T03:30:44.105Z,53.03
2023-05-10T03:33:16.712Z,66.68
2023-05-10T03:35:51.990Z,67.18
2023-05-10T03:38:22.557Z,62.67
2023-05-10T03:40:53.552Z,64.00
2023-05-10T03:43:24.369Z,72.78
2023-05-10T03:45:58.421Z,72.05
2023-05-10T03:48:29.669Z,69.68
2023-05-10T03:50:59.664Z,64.85
2023-05-10T03:53:30.714Z,80.43
2023-05-10T03:56:01.141Z,71.75
2023-05-10T03:58:32.132Z,64.00
2023-05-10T04:01:02.374Z,66.25
2023-05-10T04:03:32.707Z,67.22
2023-05-10T04:06:06.883Z,59.97
2023-05-10T04:08:38.107Z,55.92
2023-05-10T04:11:09.639Z,55.83
2023-05-10T04:13:40.383Z,53.22
2023-05-10T04:16:10.619Z,50.85
2023-05-10T04:18:42.114Z,50.58
2023-05-10T04:21:15.680Z,37.10
2023-05-10T04:23:47.089Z,37.40
2023-05-10T04:26:17.483Z,29.90
2023-05-10T04:28:48.835Z,25.50
2023-05-10T04:31:20.789Z,25.83
2023-05-10T04:33:52.108Z,20.48
2023-05-10T04:36:22.283Z,13.80
2023-05-10T04:38:53.113Z,15.02
2023-05-10T04:41:24.136Z,13.15
2023-05-10T04:43:55.111Z,13.75
2023-05-10T04:46:25.684Z,9.65
2023-05-10T04:48:56.299Z,10.38
2023-05-10T04:51:27.655Z,15.77
2023-05-10T04:54:05.974Z,14.38
2023-05-10T04:56:37.289Z,17.10
2023-05-10T04:59:07.576Z,17.58
2023-05-10T05:01:38.241Z,20.83
2023-05-10T05:04:09.200Z,15.00
2023-05-10T05:06:39.756Z,10.02
2023-05-10T05:09:11.177Z,11.15
2023-05-10T05:11:42.561Z,17.48
2023-05-10T05:14:13.964Z,18.55
2023-05-10T05:16:44.189Z,11.80
2023-05-10T05:19:14.998Z,12.52
2023-05-10T05:21:45.452Z,9.57
2023-05-10T05:24:16.015Z,8.02
2023-05-10T05:26:47.137Z,8.23
2023-05-10T05:29:18.320Z,17.70
2023-05-10T05:31:48.295Z,13.85
2023-05-10T05:34:22.761Z,12.88
2023-05-10T05:36:53.198Z,16.70
2023-05-10T05:39:26.208Z,9.93
2023-05-10T05:41:57.274Z,11.15
2023-05-10T05:44:28.842Z,10.45
2023-05-10T05:47:01.892Z,11.15
2023-05-10T05:49:32.612Z,7.82
2023-05-10T05:52:06.851Z,13.00
2023-05-10T05:54:37.686Z,11.02
2023-05-10T05:57:08.669Z,8.15
2023-05-10T05:59:44.173Z,11.13
2023-05-10T06:02:14.804Z,14.05
2023-05-10T06:04:45.759Z,11.57
2023-05-10T06:07:16.293Z,10.98
2023-05-10T06:09:47.219Z,13.80
2023-05-10T06:12:17.774Z,7.93
2023-05-10T06:14:48.287Z,23.98
2023-05-10T06:17:19.332Z,9.70
2023-05-10T06:19:49.735Z,10.15
2023-05-10T06:22:20.386Z,8.20
2023-05-10T06:24:53.647Z,7.95
2023-05-10T06:27:28.769Z,8.07
2023-05-10T06:30:11.868Z,13.18
2023-05-10T06:32:43.798Z,8.25
2023-05-10T06:35:19.311Z,14.65
2023-05-10T06:37:50.762Z,14.50
2023-05-10T06:40:35.159Z,10.55
2023-05-10T06:43:06.761Z,7.53
2023-05-10T06:45:37.581Z,7.03
2023-05-10T06:48:08.318Z,17.90
2023-05-10T06:50:38.552Z,15.38
2023-05-10T06:53:09.803Z,16.17
2023-05-10T06:55:40.253Z,19.10
2023-05-10T06:58:10.793Z,14.00
2023-05-10T07:00:42.796Z,25.10
2023-05-10T07:03:13.953Z,16.48
2023-05-10T07:05:44.518Z,23.48
2023-05-10T07:08:15.836Z,17.95
2023-05-10T07:10:46.723Z,8.65
2023-05-10T07:13:18.010Z,7.72
2023-05-10T07:15:48.709Z,11.32
2023-05-10T07:18:19.317Z,7.45
2023-05-10T07:20:50.141Z,19.38
2023-05-10T07:23:21.519Z,12.63
2023-05-10T07:25:54.385Z,10.07
2023-05-10T07:28:24.837Z,9.38
2023-05-10T07:30:55.563Z,7.82
2023-05-10T07:33:26.431Z,12.93
2023-05-10T07:35:57.840Z,12.43
2023-05-10T07:38:28.310Z,22.30
2023-05-10T07:40:58.351Z,13.18
2023-05-10T07:43:28.791Z,11.27
2023-05-10T07:46:01.774Z,7.38
2023-05-10T07:48:32.219Z,10.20
2023-05-10T07:51:03.522Z,9.35
2023-05-10T07:53:34.809Z,16.13
2023-05-10T07:56:22.590Z,17.58
2023-05-10T07:58:53.351Z,14.38
2023-05-10T08:01:24.635Z,15.80
2023-05-10T08:03:55.652Z,16.90
2023-05-10T08:06:26.113Z,11.88
2023-05-10T08:08:57.795Z,10.45
2023-05-10T08:11:29.814Z,7.07
2023-05-10T08:14:01.867Z,10.63
2023-05-10T08:16:32.080Z,10.07
2023-05-10T08:19:02.965Z,18.50
2023-05-10T08:21:33.393Z,19.23
2023-05-10T08:24:08.162Z,28.10
2023-05-10T08:26:39.343Z,16.40
2023-05-10T08:29:10.149Z,16.65
2023-05-10T08:31:40.883Z,17.10
2023-05-10T08:34:11.826Z,14.88
2023-05-10T08:36:42.884Z,21.48
2023-05-10T08:39:23.002Z,15.57
2023-05-10T08:42:01.222Z,16.90
2023-05-10T08:44:34.901Z,12.63
2023-05-10T08:47:08.506Z,13.88
2023-05-10T08:49:39.539Z,9.52
2023-05-10T08:52:10.982Z,9.13
2023-05-10T08:54:41.663Z,10.82
2023-05-10T08:57:12.700Z,9.95
2023-05-10T08:59:46.722Z,13.10
2023-05-10T09:02:18.892Z,11.20
2023-05-10T09:04:51.164Z,18.17
2023-05-10T09:07:22.353Z,15.90
2023-05-10T09:09:53.669Z,12.30
2023-05-10T09:12:24.295Z,9.40
2023-05-10T09:14:55.453Z,8.80
2023-05-10T09:17:27.202Z,8.57
2023-05-10T09:20:01.883Z,10.93
2023-05-10T09:22:33.252Z,10.18
2023-05-10T09:25:07.846Z,11.10
2023-05-10T09:27:39.032Z,10.80
2023-05-10T09:30:10.587Z,9.57
2023-05-10T09:32:44.429Z,14.18
2023-05-10T09:35:21.484Z,16.65
2023-05-10T09:37:56.018Z,12.65
2023-05-10T09:40:28.263Z,8.88
2023-05-10T09:43:00.200Z,12.77
2023-05-10T09:45:31.604Z,15.85
2023-05-10T09:48:04.066Z,15.13
2023-05-10T09:50:35.107Z,13.32
2023-05-10T09:53:06.354Z,16.67
2023-05-10T09:55:43.216Z,20.30
2023-05-10T09:58:14.747Z,24.08
2023-05-10T10:00:45.722Z,52.50
2023-05-10T10:03:19.559Z,30.05
2023-05-10T10:05:50.772Z,29.08
2023-05-10T10:08:24.912Z,25.88
2023-05-10T10:10:55.611Z,23.92
2023-05-10T10:13:25.992Z,27.25
2023-05-10T10:15:57.065Z,29.35
2023-05-10T10:18:29.120Z,36.55
2023-05-10T10:21:00.357Z,43.65
2023-05-10T10:23:32.379Z,21.15
2023-05-10T10:26:04.919Z,25.30
2023-05-10T10:28:55.318Z,24.10
2023-05-10T10:31:44.499Z,23.35
2023-05-10T10:34:34.082Z,21.70
2023-05-10T10:37:09.506Z,18.30
2023-05-10T10:39:39.889Z,22.63
2023-05-10T10:42:11.236Z,17.30
2023-05-10T10:44:46.625Z,18.90
2023-05-10T10:47:32.148Z,20.73
2023-05-10T10:50:04.023Z,20.17
2023-05-10T10:52:36.017Z,19.58
2023-05-10T10:55:11.472Z,21.70
2023-05-10T10:57:46.484Z,19.98
2023-05-10T11:00:22.522Z,19.70
2023-05-10T11:02:59.096Z,32.95
2023-05-10T11:05:47.899Z,26.75
2023-05-10T11:08:24.825Z,42.05
2023-05-10T11:11:05.663Z,28.10
2023-05-10T11:13:56.853Z,23.55
2023-05-10T11:16:27.534Z,41.10
2023-05-10T11:19:03.848Z,31.13
2023-05-10T11:21:36.451Z,40.03
2023-05-10T11:24:14.853Z,37.72
2023-05-10T11:26:45.429Z,28.08
2023-05-10T11:29:16.107Z,38.05
2023-05-10T11:31:47.410Z,31.33
2023-05-10T11:34:36.907Z,30.70
2023-05-10T11:37:07.739Z,30.70
2023-05-10T11:39:38.750Z,28.15
2023-05-10T11:42:11.512Z,32.83
2023-05-10T11:44:49.519Z,28.15
2023-05-10T11:47:20.112Z,27.65
2023-05-10T11:49:50.727Z,35.58
2023-05-10T11:52:22.038Z,31.23
2023-05-10T11:54:56.367Z,35.55
2023-05-10T11:57:31.525Z,40.25
2023-05-10T12:00:02.846Z,34.50
2023-05-10T12:02:37.461Z,28.23
2023-05-10T12:05:09.337Z,32.80
2023-05-10T12:07:40.106Z,37.85
2023-05-10T12:10:17.286Z,34.60
2023-05-10T12:12:49.612Z,33.90
2023-05-10T12:15:22.023Z,35.30
2023-05-10T12:17:53.414Z,30.30
2023-05-10T12:20:25.192Z,29.38
2023-05-10T12:22:59.733Z,26.63
2023-05-10T12:25:35.784Z,30.00
2023-05-10T12:28:07.333Z,32.10
2023-05-10T12:30:41.619Z,35.33
2023-05-10T12:33:20.098Z,41.55
2023-05-10T12:35:52.493Z,38.70
2023-05-10T12:38:27.621Z,32.78
2023-05-10T12:40:58.566Z,38.63
2023-05-10T12:43:29.090Z,37.30
2023-05-10T12:46:00.636Z,40.20
2023-05-10T12:48:33.342Z,43.63
2023-05-10T12:51:05.272Z,46.65
2023-05-10T12:53:36.576Z,53.25
2023-05-10T12:56:07.731Z,47.33
2023-05-10T12:58:38.459Z,50.05
2023-05-10T13:01:09.178Z,45.28
2023-05-10T13:03:40.742Z,51.75
2023-05-10T13:06:11.195Z,47.60
2023-05-10T13:08:42.676Z,44.85
2023-05-10T13:11:14.142Z,75.63
2023-05-10T13:13:44.732Z,98.93
2023-05-10T13:16:15.156Z,80.00
2023-05-10T13:18:45.720Z,77.45
2023-05-10T13:21:16.159Z,55.92
2023-05-10T13:23:46.696Z,54.35
2023-05-10T13:26:17.069Z,53.67
2023-05-10T13:28:48.074Z,56.13
2023-05-10T13:31:18.150Z,59.30
2023-05-10T13:33:50.578Z,53.33
2023-05-10T13:36:26.415Z,55.80
2023-05-10T13:38:59.172Z,52.38
2023-05-10T13:41:30.124Z,48.05
2023-05-10T13:44:00.168Z,50.58
2023-05-10T13:46:34.264Z,52.70
2023-05-10T13:49:05.209Z,59.45
2023-05-10T13:51:37.824Z,62.22
2023-05-10T13:54:10.375Z,58.38
2023-05-10T13:56:46.064Z,67.20
2023-05-10T13:59:17.670Z,74.82
2023-05-10T14:01:47.756Z,61.63
2023-05-10T14:04:18.637Z,76.18
2023-05-10T14:06:50.360Z,67.68
2023-05-10T14:09:21.648Z,54.65
2023-05-10T14:11:52.201Z,58.92
2023-05-10T14:14:23.175Z,49.08
2023-05-10T14:16:55.160Z,54.53
2023-05-10T14:19:28.992Z,48.53
2023-05-10T14:21:59.647Z,55.38
2023-05-10T14:24:30.652Z,44.25
2023-05-10T14:27:04.268Z,53.50
2023-05-10T14:29:35.275Z,51.05
2023-05-10T14:32:06.341Z,50.85
2023-05-10T14:34:37.250Z,50.40
2023-05-10T14:37:07.977Z,49.05
2023-05-10T14:39:38.701Z,58.10
2023-05-10T14:42:08.928Z,53.72
2023-05-10T14:44:39.736Z,54.50
2023-05-10T14:47:12.052Z,49.88
2023-05-10T14:49:43.234Z,58.25
2023-05-10T14:52:14.521Z,47.53
2023-05-10T14:54:45.825Z,53.20
2023-05-10T14:57:17.340Z,54.38
2023-05-10T14:59:48.023Z,58.38
2023-05-10T15:02:18.787Z,64.10
2023-05-10T15:04:53.366Z,56.45
2023-05-10T15:07:24.757Z,56.85
2023-05-10T15:09:56.416Z,57.90
2023-05-10T15:12:27.157Z,64.35
2023-05-10T15:14:58.278Z,62.50
2023-05-10T15:17:29.289Z,69.45
2023-05-10T15:19:59.856Z,77.63
2023-05-10T15:22:31.850Z,72.70
2023-05-10T15:25:02.642Z,80.82
2023-05-10T15:27:33.316Z,81.90
2023-05-10T15:30:07.406Z,84.55
2023-05-10T15:32:37.831Z,80.75
2023-05-10T15:35:10.945Z,84.13
2023-05-10T15:37:41.516Z,86.22
2023-05-10T15:40:12.464Z,83.55
2023-05-10T15:42:43.796Z,85.82
2023-05-10T15:45:14.216Z,74.55
2023-05-10T15:47:44.265Z,74.68
2023-05-10T15:50:15.292Z,79.68
2023-05-10T15:52:45.288Z,77.60
2023-05-10T15:55:17.296Z,79.28
2023-05-10T15:57:47.781Z,79.07
2023-05-10T16:00:22.612Z,69.55
2023-05-10T16:02:54.970Z,76.95
2023-05-10T16:05:26.035Z,73.88
2023-05-10T16:07:56.570Z,77.60
2023-05-10T16:10:27.347Z,74.10
2023-05-10T16:12:57.815Z,76.95
2023-05-10T16:15:28.780Z,74.00
2023-05-10T16:17:59.672Z,78.20
2023-05-10T16:20:33.839Z,77.50
2023-05-10T16:23:06.286Z,68.05
2023-05-10T16:25:36.965Z,76.38
2023-05-10T16:28:07.335Z,78.88
2023-05-10T16:33:40.205Z,75.43
2023-05-10T16:36:11.386Z,75.63
2023-05-10T16:38:42.906Z,67.68
2023-05-10T16:41:13.802Z,71.35
2023-05-10T16:43:44.849Z,79.82
2023-05-10T16:46:15.248Z,74.32
2023-05-10T16:48:46.002Z,69.75
2023-05-10T16:51:16.379Z,66.53
2023-05-10T16:53:46.940Z,70.60
2023-05-10T16:56:19.608Z,65.47
2023-05-10T16:58:53.419Z,66.47
2023-05-10T17:01:26.533Z,75.28
2023-05-10T17:03:58.146Z,69.43
2023-05-10T17:06:28.647Z,76.53
2023-05-10T17:08:58.877Z,75.60
2023-05-10T17:11:31.117Z,70.72
2023-05-10T17:14:02.613Z,70.55
2023-05-10T17:16:32.683Z,75.65
2023-05-10T17:19:04.126Z,65.95
2023-05-10T17:21:34.889Z,75.85
2023-05-10T17:24:07.109Z,74.10
2023-05-10T17:26:37.924Z,68.90
2023-05-10T17:29:10.393Z,67.75
2023-05-10T17:31:40.398Z,77.50
2023-05-10T17:34:10.415Z,72.68
2023-05-10T17:36:41.356Z,65.90
2023-05-10T17:39:12.341Z,69.15
2023-05-10T17:41:42.439Z,62.67
2023-05-10T17:44:15.897Z,66.10
2023-05-10T17:46:49.478Z,65.63
2023-05-10T17:49:19.927Z,65.32
2023-05-10T17:51:50.809Z,70.60
2023-05-10T17:54:21.397Z,65.97
2023-05-10T17:56:52.404Z,71.95
2023-05-10T17:59:22.873Z,68.90
2023-05-10T18:01:53.892Z,74.80
2023-05-10T18:04:27.505Z,60.90
2023-05-10T18:07:02.412Z,57.67
2023-05-10T18:09:33.105Z,60.65
2023-05-10T18:12:04.587Z,59.28
2023-05-10T18:14:40.616Z,62.65
2023-05-10T18:17:11.413Z,68.30
2023-05-10T18:19:42.192Z,75.45
2023-05-10T18:22:12.941Z,65.20
2023-05-10T18:24:43.513Z,70.97
2023-05-10T18:27:13.949Z,69.82
2023-05-10T18:29:43.900Z,65.43
2023-05-10T18:32:14.460Z,65.60
2023-05-10T18:34:45.629Z,76.30
2023-05-10T18:37:16.958Z,69.00
2023-05-10T18:39:47.479Z,77.10
2023-05-10T18:42:18.375Z,71.93
2023-05-10T18:44:48.486Z,73.18
2023-05-10T18:47:18.949Z,71.82
2023-05-10T18:49:48.982Z,78.57
2023-05-10T18:52:20.236Z,68.88
2023-05-10T18:54:51.565Z,69.60
2023-05-10T18:57:23.161Z,68.63
2023-05-10T18:59:54.016Z,75.68
2023-05-10T19:02:26.286Z,76.75
2023-05-10T19:04:56.569Z,73.55
2023-05-10T19:07:26.763Z,75.80
2023-05-10T19:09:57.452Z,73.82
2023-05-10T19:12:27.992Z,73.95
2023-05-10T19:14:58.960Z,68.18
2023-05-10T19:17:31.420Z,69.50
2023-05-10T19:20:04.273Z,67.70
2023-05-10T19:22:47.107Z,72.28
2023-05-10T19:25:30.424Z,73.15
2023-05-10T19:28:01.238Z,66.72
2023-05-10T19:30:33.018Z,75.13
2023-05-10T19:33:07.184Z,75.53
2023-05-10T19:35:38.184Z,66.90
2023-05-10T19:38:09.014Z,78.40
2023-05-10T19:40:39.482Z,79.72
2023-05-10T19:43:10.196Z,72.63
2023-05-10T19:45:40.434Z,67.82
2023-05-10T19:48:11.153Z,67.40
2023-05-10T19:50:41.635Z,61.05
2023-05-10T19:53:12.513Z,67.95
2023-05-10T19:55:43.011Z,63.65
2023-05-10T19:58:13.550Z,72.50
2023-05-10T20:00:44.062Z,65.70
2023-05-10T20:03:35.663Z,65.20
2023-05-10T20:06:06.097Z,70.30
2023-05-10T20:08:36.514Z,63.95
2023-05-10T20:11:07.568Z,64.03
2023-05-10T20:13:38.000Z,67.88
2023-05-10T20:16:08.547Z,68.68
2023-05-10T20:18:39.587Z,66.65
2023-05-10T20:21:09.557Z,72.90
2023-05-10T20:23:39.816Z,77.22
2023-05-10T20:26:10.996Z,71.05
2023-05-10T20:28:41.706Z,74.30
2023-05-10T20:31:13.149Z,77.20
2023-05-10T20:33:44.128Z,80.38
2023-05-10T20:36:15.081Z,74.05
2023-05-10T20:38:45.598Z,72.95
2023-05-10T20:41:16.075Z,73.75
2023-05-10T20:43:46.100Z,70.38
2023-05-10T20:46:18.085Z,80.80
2023-05-10T20:48:48.593Z,84.75
2023-05-10T20:51:19.732Z,78.15
2023-05-10T20:53:49.847Z,77.10
2023-05-10T20:56:21.061Z,81.28
2023-05-10T20:58:52.368Z,74.55
2023-05-10T21:01:23.139Z,75.35
2023-05-10T21:03:54.091Z,77.03
2023-05-10T21:06:24.558Z,78.43
2023-05-10T21:08:54.841Z,91.80
2023-05-10T21:11:26.042Z,78.22
2023-05-10T21:13:56.883Z,71.38
2023-05-10T21:16:27.165Z,74.15
2023-05-10T21:18:57.138Z,68.07
2023-05-10T21:21:27.605Z,73.55
2023-05-10T21:23:58.653Z,66.95
2023-05-10T21:26:29.841Z,73.07
2023-05-10T21:29:00.649Z,71.45
2023-05-10T21:31:32.199Z,66.40
2023-05-10T21:34:02.599Z,68.18
2023-05-10T21:36:33.301Z,59.08
2023-05-10T21:39:04.630Z,69.28
2023-05-10T21:41:35.692Z,65.07
2023-05-10T21:44:05.893Z,67.05
2023-05-10T21:46:36.745Z,72.55
2023-05-10T21:49:06.905Z,72.07
2023-05-10T21:51:37.655Z,71.53
2023-05-10T21:54:08.898Z,69.03
2023-05-10T21:56:40.045Z,65.32
2023-05-10T21:59:10.661Z,66.63
2023-05-10T22:01:40.848Z,67.50
2023-05-10T22:04:27.621Z,71.88
2023-05-10T22:06:58.113Z,66.20
2023-05-10T22:09:28.674Z,73.95
2023-05-10T22:12:01.978Z,65.57
2023-05-10T22:14:33.135Z,70.65
2023-05-10T22:17:06.039Z,64.80
2023-05-10T22:19:36.832Z,65.40
2023-05-10T22:22:11.174Z,62.20
2023-05-10T22:24:42.246Z,69.75
2023-05-10T22:27:12.692Z,59.95
2023-05-10T22:29:43.540Z,68.07
2023-05-10T22:32:14.689Z,59.85
2023-05-10T22:34:44.957Z,67.65
2023-05-10T22:37:19.188Z,64.28
2023-05-10T22:39:51.100Z,64.47
2023-05-10T22:42:21.175Z,65.35
2023-05-10T22:44:52.719Z,67.28
2023-05-10T22:47:23.265Z,64.07
2023-05-10T22:49:54.052Z,68.68
2023-05-10T22:52:24.729Z,61.70
2023-05-10T22:54:56.150Z,64.07
2023-05-10T22:57:26.200Z,59.22
2023-05-10T22:59:58.543Z,56.03
2023-05-10T23:02:28.736Z,53.22
2023-05-10T23:04:59.324Z,56.30
2023-05-10T23:07:30.677Z,55.13
2023-05-10T23:10:01.018Z,58.28
2023-05-10T23:12:32.729Z,49.90
2023-05-10T23:15:04.120Z,50.40
2023-05-10T23:17:34.195Z,46.35
2023-05-10T23:20:05.218Z,44.28
2023-05-10T23:22:36.231Z,46.28
2023-05-10T23:25:06.743Z,46.03
2023-05-10T23:27:36.737Z,47.88
2023-05-10T23:30:08.339Z,47.53
2023-05-10T23:32:39.801Z,39.55
2023-05-10T23:35:11.262Z,48.22
2023-05-10T23:37:43.777Z,42.42
2023-05-10T23:40:15.322Z,43.40
2023-05-10T23:42:46.646Z,50.65
2023-05-10T23:45:17.754Z,42.63
2023-05-10T23:47:50.722Z,40.92
2023-05-10T23:50:21.231Z,36.53
2023-05-10T23:52:52.758Z,37.60
2023-05-10T23:55:23.022Z,42.33
2023-05-10T23:57:53.516Z,35.70
